Time;durP1;ratioP1;P1;durP2;ratioP2;P2;SDS_P1;SDS_P2;PMS_P1;PMS_P2;Temp;Humidity;BMP_temperature;BMP_pressure;BME280_temperature;BME280_humidity;BME280_pressure;Samples;Min_cycle;Max_cycle;Signal;HPM_P1;HPM_P2
2024/02/23 00:00:30;;;;;;;0.73;0.40;;;8.70;99.90;;;;;;2083935;28;20033;-69
2024/02/23 00:01:30;;;;;;;0.68;0.35;;;8.60;99.90;;;;;;2083052;28;20409;-69
2024/02/23 00:02:31;;;;;;;0.55;0.30;;;8.60;99.90;;;;;;2083641;28;20028;-70
2024/02/23 00:03:34;;;;;;;1.45;0.60;;;8.60;99.90;;;;;;2083646;28;20112;-69
2024/02/23 00:04:35;;;;;;;0.30;0.30;;;8.50;99.90;;;;;;2084309;28;20036;-70
2024/02/23 00:05:35;;;;;;;0.30;0.30;;;8.50;99.90;;;;;;2084123;28;20422;-69
2024/02/23 00:06:36;;;;;;;0.38;0.30;;;8.50;99.90;;;;;;2082917;28;20622;-70
2024/02/23 00:07:36;;;;;;;1.23;0.32;;;8.40;99.90;;;;;;2085593;28;20040;-70
2024/02/23 00:08:37;;;;;;;0.52;0.20;;;8.40;99.90;;;;;;2084576;28;20067;-69
2024/02/23 00:09:38;;;;;;;0.30;0.20;;;8.30;99.90;;;;;;2084081;28;20018;-69
2024/02/23 00:10:38;;;;;;;0.60;0.30;;;8.30;99.90;;;;;;2086323;28;20028;-68
2024/02/23 00:11:44;;;;;;;0.30;0.30;;;8.30;99.90;;;;;;2083950;28;20026;-70
2024/02/23 00:12:44;;;;;;;0.20;0.20;;;8.30;99.90;;;;;;2084005;28;20083;-70
2024/02/23 00:13:45;;;;;;;0.20;0.20;;;8.30;99.90;;;;;;2084947;28;20036;-69
2024/02/23 00:14:45;;;;;;;0.68;0.30;;;8.30;99.90;;;;;;2085031;28;20033;-71
2024/02/23 00:15:46;;;;;;;1.65;0.65;;;8.20;99.90;;;;;;2084146;28;20060;-69
2024/02/23 00:16:46;;;;;;;0.80;0.20;;;8.20;99.90;;;;;;2084471;28;20032;-70
2024/02/23 00:17:47;;;;;;;0.28;0.28;;;8.20;99.90;;;;;;2083036;28;20025;-69
2024/02/23 00:18:47;;;;;;;0.50;0.20;;;8.20;99.90;;;;;;2083370;28;20509;-70
2024/02/23 00:19:49;;;;;;;1.40;0.20;;;8.10;99.90;;;;;;2091668;28;20037;-70
2024/02/23 00:20:49;;;;;;;1.35;0.20;;;8.10;99.90;;;;;;2092308;28;20028;-70
2024/02/23 00:21:51;;;;;;;0.30;0.20;;;8.10;99.90;;;;;;2083993;28;20075;-69
2024/02/23 00:22:51;;;;;;;0.45;0.30;;;8.10;99.90;;;;;;2083402;28;20477;-68
2024/02/23 00:23:52;;;;;;;0.20;0.20;;;8.10;99.90;;;;;;2083805;28;20382;-69
2024/02/23 00:24:52;;;;;;;0.38;0.30;;;8.10;99.90;;;;;;2085516;28;20026;-69
2024/02/23 00:25:53;;;;;;;0.20;0.20;;;8.10;99.90;;;;;;2085012;28;20111;-69
2024/02/23 00:26:54;;;;;;;0.20;0.20;;;8.10;99.90;;;;;;2084372;28;20459;-70
2024/02/23 00:27:54;;;;;;;0.85;0.50;;;8.10;99.90;;;;;;2083648;28;20025;-69
2024/02/23 00:28:55;;;;;;;0.82;0.40;;;8.10;99.90;;;;;;2083012;28;20025;-70
2024/02/23 00:29:56;;;;;;;0.52;0.30;;;8.10;99.90;;;;;;2085146;28;20013;-69
2024/02/23 00:30:56;;;;;;;0.30;0.30;;;8.10;99.90;;;;;;2083701;28;20044;-69
2024/02/23 00:31:57;;;;;;;0.77;0.40;;;8.10;99.90;;;;;;2082202;28;20033;-69
2024/02/23 00:32:57;;;;;;;0.50;0.50;;;8.10;99.90;;;;;;2085032;28;20496;-69
2024/02/23 00:33:58;;;;;;;0.25;0.25;;;8.00;99.90;;;;;;2086680;28;20029;-69
2024/02/23 00:34:59;;;;;;;0.80;0.43;;;8.10;99.90;;;;;;2085227;28;20032;-71
2024/02/23 00:35:59;;;;;;;1.25;0.35;;;8.00;99.90;;;;;;2084807;28;20095;-71
2024/02/23 00:37:00;;;;;;;0.30;0.30;;;8.00;99.90;;;;;;2083675;28;20053;-69
2024/02/23 00:38:00;;;;;;;0.77;0.40;;;8.00;99.90;;;;;;2084698;28;20040;-67
2024/02/23 00:39:01;;;;;;;0.88;0.52;;;8.00;99.90;;;;;;2082204;28;20100;-69
2024/02/23 00:40:05;;;;;;;0.50;0.50;;;8.00;99.90;;;;;;2083246;28;20025;-69
2024/02/23 00:41:06;;;;;;;0.52;0.40;;;8.00;99.90;;;;;;2084277;28;20103;-69
2024/02/23 00:42:07;;;;;;;0.50;0.50;;;8.00;99.90;;;;;;2083460;28;20017;-70
2024/02/23 00:43:08;;;;;;;1.38;0.30;;;8.00;99.90;;;;;;2084421;28;20492;-69
2024/02/23 00:44:08;;;;;;;0.65;0.40;;;8.00;99.90;;;;;;2083986;28;20398;-69
2024/02/23 00:45:09;;;;;;;0.40;0.40;;;8.00;99.90;;;;;;2084763;28;20100;-69
2024/02/23 00:46:09;;;;;;;0.70;0.60;;;8.00;99.90;;;;;;2083692;28;20559;-70
2024/02/23 00:47:10;;;;;;;0.40;0.40;;;8.00;99.90;;;;;;2085601;28;20052;-70
2024/02/23 00:48:12;;;;;;;0.63;0.63;;;8.00;99.90;;;;;;2084300;28;20104;-68
2024/02/23 00:49:13;;;;;;;0.75;0.75;;;8.00;99.90;;;;;;2085072;28;20104;-70
2024/02/23 00:50:14;;;;;;;1.00;0.50;;;8.00;99.90;;;;;;2084524;28;20018;-69
2024/02/23 00:51:15;;;;;;;0.45;0.45;;;8.00;99.90;;;;;;2083255;28;20408;-69
2024/02/23 00:52:16;;;;;;;0.95;0.70;;;8.00;99.90;;;;;;2083723;28;20487;-70
2024/02/23 00:53:17;;;;;;;2.03;0.57;;;8.00;99.90;;;;;;2082553;28;20028;-69
2024/02/23 00:54:18;;;;;;;1.30;0.50;;;8.00;99.90;;;;;;2083675;28;20021;-71
2024/02/23 00:55:18;;;;;;;1.23;0.40;;;8.00;99.90;;;;;;2081354;28;20021;-69
2024/02/23 00:56:19;;;;;;;0.80;0.60;;;7.90;99.90;;;;;;2090615;28;20033;-69
2024/02/23 00:57:27;;;;;;;1.60;0.68;;;8.00;99.90;;;;;;2091788;28;20122;-69
2024/02/23 00:58:27;;;;;;;0.73;0.52;;;8.00;99.90;;;;;;2081981;28;20060;-69
2024/02/23 00:59:28;;;;;;;0.50;0.50;;;8.00;99.90;;;;;;2084361;28;20028;-70
2024/02/23 01:00:28;;;;;;;0.95;0.50;;;8.00;99.90;;;;;;2084491;28;20053;-70
2024/02/23 01:01:29;;;;;;;0.55;0.50;;;7.90;99.90;;;;;;2082217;28;20032;-70
2024/02/23 01:02:30;;;;;;;1.13;0.55;;;8.00;99.90;;;;;;2084425;28;20036;-70
2024/02/23 01:03:30;;;;;;;1.20;0.50;;;7.90;99.90;;;;;;2081065;28;20044;-70
2024/02/23 01:04:31;;;;;;;0.85;0.45;;;8.00;99.90;;;;;;2083308;28;20493;-70
2024/02/23 01:05:31;;;;;;;1.35;0.52;;;7.90;99.90;;;;;;2083377;28;20033;-69
2024/02/23 01:06:32;;;;;;;2.50;0.50;;;7.90;99.90;;;;;;2081927;28;20112;-69
2024/02/23 01:07:32;;;;;;;1.52;0.65;;;8.00;99.90;;;;;;2086270;28;20021;-69
2024/02/23 01:08:33;;;;;;;1.73;0.63;;;8.00;99.90;;;;;;2084589;28;20036;-69
2024/02/23 01:09:33;;;;;;;2.80;0.90;;;8.00;99.90;;;;;;2082490;28;20020;-69
2024/02/23 01:10:34;;;;;;;1.80;0.98;;;8.00;99.90;;;;;;2079980;28;20079;-69
2024/02/23 01:11:35;;;;;;;3.35;1.20;;;8.00;99.90;;;;;;2085120;28;20036;-70
2024/02/23 01:12:35;;;;;;;1.63;0.90;;;8.00;99.90;;;;;;2086126;28;20056;-69
2024/02/23 01:13:36;;;;;;;1.75;1.00;;;8.00;99.90;;;;;;2084640;28;20025;-70
2024/02/23 01:14:37;;;;;;;1.52;1.10;;;8.00;99.90;;;;;;2085251;28;20032;-70
2024/02/23 01:15:37;;;;;;;3.17;1.00;;;8.00;99.90;;;;;;2084672;28;20035;-69
2024/02/23 01:16:38;;;;;;;1.65;0.95;;;8.00;99.90;;;;;;2086046;28;20032;-69
2024/02/23 01:17:38;;;;;;;2.28;0.88;;;8.00;99.90;;;;;;2082777;28;20033;-70
2024/02/23 01:18:39;;;;;;;4.95;0.95;;;8.00;99.90;;;;;;2085454;28;20049;-69
2024/02/23 01:19:41;;;;;;;2.15;0.93;;;8.00;99.90;;;;;;2083827;28;20506;-69
2024/02/23 01:20:42;;;;;;;3.08;0.70;;;8.00;99.90;;;;;;2082644;28;20068;-70
2024/02/23 01:21:43;;;;;;;3.00;0.90;;;8.00;99.90;;;;;;2085850;28;20558;-69
2024/02/23 01:22:43;;;;;;;0.75;0.75;;;8.00;99.90;;;;;;2083438;28;20430;-70
2024/02/23 01:23:44;;;;;;;2.20;0.90;;;7.90;99.90;;;;;;2084087;28;20171;-70
2024/02/23 01:24:45;;;;;;;3.38;1.27;;;8.00;99.90;;;;;;2084341;28;20056;-69
2024/02/23 01:25:45;;;;;;;1.60;0.77;;;7.90;99.90;;;;;;2083952;28;20032;-69
2024/02/23 01:26:46;;;;;;;2.05;0.93;;;8.00;99.90;;;;;;2084000;28;20492;-69
2024/02/23 01:27:46;;;;;;;1.63;0.80;;;8.00;99.90;;;;;;2084402;28;20433;-69
2024/02/23 01:28:47;;;;;;;0.95;0.82;;;8.00;99.90;;;;;;2083756;28;20021;-71
2024/02/23 01:29:47;;;;;;;1.52;0.85;;;8.00;99.90;;;;;;2084959;28;20023;-69
2024/02/23 01:30:48;;;;;;;2.25;0.98;;;8.00;99.90;;;;;;2084794;28;20025;-69
2024/02/23 01:31:49;;;;;;;2.85;0.80;;;8.00;99.90;;;;;;2087134;28;20111;-70
2024/02/23 01:32:50;;;;;;;2.92;1.05;;;8.00;99.90;;;;;;2085330;28;20072;-69
2024/02/23 01:33:51;;;;;;;1.85;0.77;;;8.00;99.90;;;;;;2081051;28;20025;-68
2024/02/23 01:34:52;;;;;;;1.42;0.77;;;7.90;99.90;;;;;;2085347;28;20031;-70
2024/02/23 01:35:52;;;;;;;1.00;0.77;;;7.90;99.90;;;;;;2083554;28;20151;-69
2024/02/23 01:36:53;;;;;;;1.80;0.77;;;7.90;99.90;;;;;;2085043;28;20113;-69
2024/02/23 01:37:53;;;;;;;1.25;0.88;;;7.90;99.90;;;;;;2086349;28;20021;-69
2024/02/23 01:38:54;;;;;;;1.08;0.68;;;7.90;99.90;;;;;;2083427;28;20032;-69
2024/02/23 01:39:55;;;;;;;1.88;0.77;;;7.90;99.90;;;;;;2086176;28;20044;-69
2024/02/23 01:40:55;;;;;;;1.83;0.80;;;7.90;99.90;;;;;;2086979;28;20066;-69
2024/02/23 01:41:56;;;;;;;1.38;0.95;;;7.90;99.90;;;;;;2083903;28;20040;-69
2024/02/23 01:43:02;;;;;;;2.50;0.90;;;7.90;99.90;;;;;;2085733;28;20029;-69
2024/02/23 01:44:05;;;;;;;2.42;1.13;;;7.90;99.90;;;;;;2083086;28;20036;-69
2024/02/23 01:45:07;;;;;;;1.33;0.80;;;7.90;99.90;;;;;;2083609;28;20032;-69
2024/02/23 01:46:08;;;;;;;2.83;0.95;;;7.90;99.90;;;;;;2084318;28;20043;-70
2024/02/23 01:47:09;;;;;;;1.65;0.73;;;7.90;99.90;;;;;;2086977;28;20100;-70
2024/02/23 01:48:10;;;;;;;1.38;0.90;;;7.90;99.90;;;;;;2087645;28;20033;-69
2024/02/23 01:49:11;;;;;;;3.03;0.90;;;7.90;99.90;;;;;;2084115;28;20052;-70
2024/02/23 01:50:12;;;;;;;2.10;0.90;;;7.90;99.90;;;;;;2081569;28;20029;-69
2024/02/23 01:51:13;;;;;;;1.00;0.60;;;7.90;99.90;;;;;;2083708;28;20029;-70
2024/02/23 01:52:15;;;;;;;0.77;0.57;;;7.90;99.90;;;;;;2082950;28;20025;-70
2024/02/23 01:53:17;;;;;;;2.40;0.90;;;7.90;99.90;;;;;;2084542;28;20048;-70
2024/02/23 01:54:18;;;;;;;0.70;0.60;;;7.90;99.90;;;;;;2081839;28;20021;-69
2024/02/23 01:55:21;;;;;;;2.35;0.70;;;7.90;99.90;;;;;;2080700;28;20028;-69
2024/02/23 01:56:22;;;;;;;1.30;0.88;;;7.90;99.90;;;;;;2083578;28;20028;-70
2024/02/23 01:57:24;;;;;;;3.03;0.60;;;7.90;99.90;;;;;;2084306;28;20600;-68
2024/02/23 01:58:24;;;;;;;2.40;0.82;;;7.90;99.90;;;;;;2083428;28;20112;-69
2024/02/23 01:59:26;;;;;;;1.40;0.68;;;7.90;99.90;;;;;;2084306;28;20033;-69
2024/02/23 02:00:27;;;;;;;1.40;0.95;;;7.90;99.90;;;;;;2083117;28;20072;-69
2024/02/23 02:01:27;;;;;;;1.17;0.90;;;7.90;99.90;;;;;;2083976;28;20060;-71
2024/02/23 02:02:28;;;;;;;2.22;0.82;;;7.90;99.90;;;;;;2084558;28;20036;-69
2024/02/23 02:03:29;;;;;;;2.65;0.80;;;7.90;99.90;;;;;;2085349;28;20079;-69
2024/02/23 02:04:29;;;;;;;2.45;1.02;;;8.00;99.90;;;;;;2085010;28;20025;-69
2024/02/23 02:05:30;;;;;;;4.68;1.10;;;8.00;99.90;;;;;;2084134;28;20079;-70
2024/02/23 02:06:30;;;;;;;2.88;1.20;;;8.00;99.90;;;;;;2083959;28;20101;-69
2024/02/23 02:07:31;;;;;;;1.38;0.80;;;8.00;99.90;;;;;;2086447;28;20033;-70
2024/02/23 02:08:33;;;;;;;2.95;1.33;;;8.00;99.90;;;;;;2083155;28;20025;-69
2024/02/23 02:09:34;;;;;;;1.80;0.70;;;8.00;99.90;;;;;;2083182;28;20032;-69
2024/02/23 02:10:34;;;;;;;2.55;0.93;;;7.90;99.90;;;;;;2082689;28;20516;-70
2024/02/23 02:11:44;;;;;;;1.95;1.00;;;8.00;99.90;;;;;;2084868;28;20370;-70
2024/02/23 02:12:44;;;;;;;3.88;1.90;;;7.90;99.90;;;;;;2081449;28;20029;-69
2024/02/23 02:13:45;;;;;;;3.45;0.93;;;7.90;99.90;;;;;;2084648;28;20033;-69
2024/02/23 02:14:45;;;;;;;1.77;0.82;;;7.90;99.90;;;;;;2082015;28;20025;-69
2024/02/23 02:15:46;;;;;;;5.68;0.85;;;7.90;99.90;;;;;;2086395;28;20188;-69
2024/02/23 02:16:46;;;;;;;0.70;0.68;;;7.90;99.90;;;;;;2085712;28;20037;-69
2024/02/23 02:17:47;;;;;;;0.88;0.70;;;7.90;99.90;;;;;;2081427;28;20470;-69
2024/02/23 02:18:48;;;;;;;2.15;0.60;;;7.90;99.90;;;;;;2085163;28;20144;-68
2024/02/23 02:19:48;;;;;;;1.88;1.08;;;7.90;99.90;;;;;;2084006;28;20526;-69
2024/02/23 02:20:56;;;;;;;2.65;0.88;;;7.90;99.90;;;;;;2082572;28;20104;-70
2024/02/23 02:21:57;;;;;;;2.10;0.77;;;7.90;99.90;;;;;;2086745;28;20033;-70
2024/02/23 02:22:57;;;;;;;4.25;0.93;;;7.90;99.90;;;;;;2085807;28;20557;-70
2024/02/23 02:23:58;;;;;;;1.90;0.95;;;7.90;99.90;;;;;;2086028;28;20021;-70
2024/02/23 02:24:58;;;;;;;2.15;0.88;;;7.90;99.90;;;;;;2086299;28;20038;-70
2024/02/23 02:25:59;;;;;;;4.20;0.95;;;7.90;99.90;;;;;;2085017;28;20036;-69
2024/02/23 02:26:59;;;;;;;2.40;0.90;;;7.90;99.90;;;;;;2084468;28;20104;-70
2024/02/23 02:28:00;;;;;;;4.28;1.13;;;7.90;99.90;;;;;;2084822;28;20039;-69
2024/02/23 02:29:01;;;;;;;1.98;1.02;;;7.90;99.90;;;;;;2083470;28;20025;-69
2024/02/23 02:30:02;;;;;;;3.78;1.10;;;7.90;99.90;;;;;;2085250;28;20128;-69
2024/02/23 02:31:03;;;;;;;3.72;1.05;;;7.90;99.90;;;;;;2082202;28;20033;-69
2024/02/23 02:32:04;;;;;;;1.65;0.75;;;7.90;99.90;;;;;;2086431;28;20033;-69
2024/02/23 02:33:05;;;;;;;3.40;0.93;;;7.90;99.90;;;;;;2085808;28;20476;-69
2024/02/23 02:34:05;;;;;;;2.17;1.17;;;7.90;99.90;;;;;;2085739;28;20025;-69
2024/02/23 02:35:06;;;;;;;3.97;1.20;;;7.90;99.90;;;;;;2082910;28;20439;-69
2024/02/23 02:36:07;;;;;;;2.90;1.00;;;7.90;99.90;;;;;;2085625;28;20025;-69
2024/02/23 02:37:07;;;;;;;3.67;1.20;;;7.90;99.90;;;;;;2083091;28;20025;-69
2024/02/23 02:38:08;;;;;;;5.38;2.00;;;7.90;99.90;;;;;;2086507;28;20022;-70
2024/02/23 02:39:10;;;;;;;4.80;1.13;;;7.90;99.90;;;;;;2083985;28;20049;-70
2024/02/23 02:40:10;;;;;;;3.42;1.25;;;7.90;99.90;;;;;;2084307;28;20476;-69
2024/02/23 02:41:11;;;;;;;2.30;1.45;;;7.90;99.90;;;;;;2083475;28;20029;-69
2024/02/23 02:42:12;;;;;;;3.55;1.00;;;7.90;99.90;;;;;;2085613;28;20021;-69
2024/02/23 02:43:12;;;;;;;3.88;1.35;;;7.90;99.90;;;;;;2084051;28;20068;-69
2024/02/23 02:44:13;;;;;;;2.67;1.13;;;7.90;99.90;;;;;;2083662;28;20022;-70
2024/02/23 02:45:14;;;;;;;2.15;0.73;;;7.90;99.90;;;;;;2084640;28;20025;-68
2024/02/23 02:46:14;;;;;;;8.90;1.35;;;7.90;99.90;;;;;;2085607;28;20048;-69
2024/02/23 02:47:15;;;;;;;4.53;1.02;;;7.90;99.90;;;;;;2086074;28;20455;-70
2024/02/23 02:48:15;;;;;;;1.40;0.70;;;7.90;99.90;;;;;;2085655;28;20028;-69
2024/02/23 02:49:16;;;;;;;3.50;0.88;;;7.90;99.90;;;;;;2083903;28;20029;-69
2024/02/23 02:50:16;;;;;;;2.95;0.90;;;7.90;99.90;;;;;;2085198;28;20026;-68
2024/02/23 02:51:17;;;;;;;2.63;1.02;;;8.00;99.90;;;;;;2083194;28;20140;-70
2024/02/23 02:52:18;;;;;;;3.45;1.50;;;7.90;99.90;;;;;;2084954;28;20037;-69
2024/02/23 02:53:19;;;;;;;3.83;1.00;;;7.90;99.90;;;;;;2083941;28;20025;-68
2024/02/23 02:54:19;;;;;;;3.17;0.90;;;7.90;99.90;;;;;;2085230;28;20517;-69
2024/02/23 02:55:20;;;;;;;5.65;1.25;;;8.00;99.90;;;;;;2084303;28;20737;-70
2024/02/23 02:56:20;;;;;;;4.85;1.20;;;7.90;99.90;;;;;;2084035;28;20029;-69
2024/02/23 02:57:21;;;;;;;1.25;0.90;;;7.90;99.90;;;;;;2084280;28;20025;-71
2024/02/23 02:58:21;;;;;;;3.28;1.00;;;8.00;99.90;;;;;;2085206;28;20028;-70
2024/02/23 02:59:23;;;;;;;2.33;1.00;;;8.00;99.90;;;;;;2087813;28;20489;-69
2024/02/23 03:00:24;;;;;;;3.13;0.82;;;8.00;99.90;;;;;;2085004;28;20033;-70
2024/02/23 03:01:24;;;;;;;3.10;0.98;;;7.90;99.90;;;;;;2083817;28;20032;-70
2024/02/23 03:02:25;;;;;;;2.58;0.80;;;8.00;99.90;;;;;;2085442;28;20048;-69
2024/02/23 03:03:25;;;;;;;5.60;0.88;;;7.90;99.90;;;;;;2085684;28;20064;-70
2024/02/23 03:04:26;;;;;;;2.22;1.15;;;7.90;99.90;;;;;;2084254;28;20371;-70
2024/02/23 03:05:27;;;;;;;3.60;1.40;;;7.90;99.90;;;;;;2083884;28;20099;-69
2024/02/23 03:06:27;;;;;;;3.42;1.00;;;7.90;99.90;;;;;;2084006;28;20057;-69
2024/02/23 03:07:28;;;;;;;5.43;1.52;;;7.90;99.90;;;;;;2086296;28;20036;-69
2024/02/23 03:08:28;;;;;;;3.58;1.30;;;7.90;99.90;;;;;;2083360;28;20029;-70
2024/02/23 03:09:29;;;;;;;5.28;1.45;;;7.80;99.90;;;;;;2086671;28;20025;-69
2024/02/23 03:10:29;;;;;;;3.75;1.17;;;7.80;99.90;;;;;;2084657;28;20075;-70
2024/02/23 03:11:30;;;;;;;3.00;0.98;;;7.80;99.90;;;;;;2083128;28;20029;-69
2024/02/23 03:12:30;;;;;;;1.95;0.85;;;7.80;99.90;;;;;;2083944;28;20030;-70
2024/02/23 03:13:31;;;;;;;2.35;1.00;;;7.80;99.90;;;;;;2084912;28;20861;-68
2024/02/23 03:14:33;;;;;;;6.47;2.03;;;7.80;99.90;;;;;;2084086;28;20048;-69
2024/02/23 03:15:34;;;;;;;2.47;1.02;;;7.90;99.90;;;;;;2087167;28;20025;-69
2024/02/23 03:16:36;;;;;;;6.15;1.20;;;7.80;99.90;;;;;;2082566;28;20079;-69
2024/02/23 03:17:36;;;;;;;2.45;0.98;;;7.80;99.90;;;;;;2085400;28;20029;-68
2024/02/23 03:18:37;;;;;;;3.22;1.15;;;7.80;99.90;;;;;;2084477;28;20056;-69
2024/02/23 03:19:38;;;;;;;5.45;1.08;;;7.80;99.90;;;;;;2085362;28;20048;-68
2024/02/23 03:20:39;;;;;;;6.22;1.33;;;7.80;99.90;;;;;;2083581;28;20478;-69
2024/02/23 03:21:39;;;;;;;5.40;1.10;;;7.80;99.90;;;;;;2085773;28;20427;-70
2024/02/23 03:22:40;;;;;;;4.00;0.95;;;7.80;99.90;;;;;;2083717;28;20553;-69
2024/02/23 03:23:41;;;;;;;3.90;1.13;;;7.80;99.90;;;;;;2084979;28;20051;-69
2024/02/23 03:24:41;;;;;;;4.45;0.93;;;7.70;99.90;;;;;;2081528;28;20030;-70
2024/02/23 03:25:42;;;;;;;3.67;1.08;;;7.70;99.90;;;;;;2084917;28;20029;-69
2024/02/23 03:26:43;;;;;;;7.03;1.13;;;7.70;99.90;;;;;;2085951;28;20060;-69
2024/02/23 03:27:43;;;;;;;4.57;1.30;;;7.70;99.90;;;;;;2083908;28;20028;-69
2024/02/23 03:28:44;;;;;;;2.92;0.90;;;7.70;99.90;;;;;;2085225;28;20036;-68
2024/02/23 03:29:44;;;;;;;3.80;0.90;;;7.70;99.90;;;;;;2084427;28;20027;-70
2024/02/23 03:30:45;;;;;;;4.07;1.00;;;7.70;99.90;;;;;;2084896;28;20032;-68
2024/02/23 03:31:45;;;;;;;4.25;0.90;;;7.70;99.90;;;;;;2086976;28;20017;-70
2024/02/23 03:32:47;;;;;;;3.78;0.75;;;7.70;99.90;;;;;;2081837;28;20041;-68
2024/02/23 03:33:47;;;;;;;3.88;0.93;;;7.70;99.90;;;;;;2083033;28;20028;-69
2024/02/23 03:34:48;;;;;;;7.53;1.48;;;7.60;99.90;;;;;;2084317;28;20047;-69
2024/02/23 03:35:48;;;;;;;4.95;0.80;;;7.60;99.90;;;;;;2085038;28;20025;-70
2024/02/23 03:36:49;;;;;;;5.05;1.15;;;7.60;99.90;;;;;;2084797;28;20056;-71
2024/02/23 03:37:49;;;;;;;4.32;1.20;;;7.60;99.90;;;;;;2086421;28;20143;-70
2024/02/23 03:38:50;;;;;;;3.78;1.02;;;7.60;99.90;;;;;;2085036;28;20037;-68
2024/02/23 03:39:50;;;;;;;4.32;0.90;;;7.60;99.90;;;;;;2085179;28;20098;-69
2024/02/23 03:40:51;;;;;;;2.88;1.08;;;7.60;99.90;;;;;;2082953;28;20037;-68
2024/02/23 03:41:51;;;;;;;2.95;0.82;;;7.60;99.90;;;;;;2088052;28;20051;-69
2024/02/23 03:42:52;;;;;;;4.28;0.93;;;7.60;99.90;;;;;;2086350;28;20029;-69
2024/02/23 03:43:53;;;;;;;2.78;0.90;;;7.60;99.90;;;;;;2084431;28;20025;-70
2024/02/23 03:44:54;;;;;;;1.85;0.80;;;7.60;99.90;;;;;;2085420;28;20069;-69
2024/02/23 03:45:54;;;;;;;4.78;1.17;;;7.60;99.90;;;;;;2085048;28;20034;-69
2024/02/23 03:46:55;;;;;;;2.88;1.20;;;7.60;99.90;;;;;;2083254;28;20537;-70
2024/02/23 03:47:55;;;;;;;4.65;0.90;;;7.60;99.90;;;;;;2083068;28;20021;-71
2024/02/23 03:48:57;;;;;;;4.60;0.98;;;7.60;99.90;;;;;;2085181;28;20030;-69
2024/02/23 03:49:58;;;;;;;4.50;1.08;;;7.60;99.90;;;;;;2086333;28;20112;-69
2024/02/23 03:50:58;;;;;;;2.88;0.80;;;7.60;99.90;;;;;;2084621;28;20021;-69
2024/02/23 03:51:59;;;;;;;2.67;0.93;;;7.60;99.90;;;;;;2082601;28;20032;-69
2024/02/23 03:52:59;;;;;;;3.78;1.10;;;7.60;99.90;;;;;;2083333;28;20052;-70
2024/02/23 03:54:00;;;;;;;5.07;1.10;;;7.60;99.90;;;;;;2084405;28;20021;-69
2024/02/23 03:55:01;;;;;;;3.55;1.20;;;7.60;99.90;;;;;;2084935;28;20057;-70
2024/02/23 03:56:01;;;;;;;5.07;1.20;;;7.60;99.90;;;;;;2087791;28;20112;-69
2024/02/23 03:57:03;;;;;;;2.45;0.70;;;7.60;99.90;;;;;;2085222;28;20043;-70
2024/02/23 03:58:03;;;;;;;4.00;0.95;;;7.60;99.90;;;;;;2084347;28;20025;-70
2024/02/23 03:59:04;;;;;;;6.18;1.10;;;7.60;99.90;;;;;;2084115;28;20063;-69
2024/02/23 04:00:06;;;;;;;3.90;0.88;;;7.60;99.90;;;;;;2084556;28;20029;-69
2024/02/23 04:01:06;;;;;;;3.90;1.17;;;7.60;99.90;;;;;;2084716;28;20092;-69
2024/02/23 04:02:07;;;;;;;4.60;1.45;;;7.60;99.90;;;;;;2087005;28;20474;-69
2024/02/23 04:03:08;;;;;;;1.98;0.90;;;7.60;99.90;;;;;;2082358;28;20046;-71
2024/02/23 04:04:09;;;;;;;3.17;1.10;;;7.60;99.90;;;;;;2085087;28;20115;-70
2024/02/23 04:05:09;;;;;;;2.28;0.63;;;7.60;99.90;;;;;;2085300;28;20040;-69
2024/02/23 04:06:10;;;;;;;2.75;1.45;;;7.60;99.90;;;;;;2084667;28;20065;-70
2024/02/23 04:07:10;;;;;;;3.58;0.75;;;7.60;99.90;;;;;;2084879;28;20535;-69
2024/02/23 04:08:11;;;;;;;3.13;1.00;;;7.60;99.90;;;;;;2083808;28;20087;-69
2024/02/23 04:09:12;;;;;;;3.80;0.90;;;7.60;99.90;;;;;;2084979;28;20033;-70
2024/02/23 04:10:16;;;;;;;6.78;1.10;;;7.60;99.90;;;;;;2084501;28;20478;-69
2024/02/23 04:11:16;;;;;;;4.30;0.90;;;7.60;99.90;;;;;;2082317;28;20021;-69
2024/02/23 04:12:17;;;;;;;8.85;1.00;;;7.70;99.90;;;;;;2082665;28;20029;-69
2024/02/23 04:13:18;;;;;;;7.18;1.10;;;7.60;99.90;;;;;;2085048;28;20381;-69
2024/02/23 04:14:18;;;;;;;5.47;1.02;;;7.60;99.90;;;;;;2085292;28;20024;-69
2024/02/23 04:15:19;;;;;;;5.35;0.88;;;7.70;99.90;;;;;;2083215;28;20041;-69
2024/02/23 04:16:23;;;;;;;3.00;0.93;;;7.70;99.90;;;;;;2090289;28;20029;-69
2024/02/23 04:17:24;;;;;;;4.93;0.93;;;7.60;99.90;;;;;;2091990;28;20419;-70
2024/02/23 04:18:25;;;;;;;4.65;1.00;;;7.70;99.90;;;;;;2083514;28;20088;-69
2024/02/23 04:19:25;;;;;;;3.22;0.85;;;7.70;99.90;;;;;;2085944;28;20081;-70
2024/02/23 04:20:26;;;;;;;4.82;0.90;;;7.70;99.90;;;;;;2083832;28;20086;-69
2024/02/23 04:21:26;;;;;;;4.75;0.88;;;7.70;99.90;;;;;;2086955;28;20134;-70
2024/02/23 04:22:27;;;;;;;5.13;0.90;;;7.70;99.90;;;;;;2084071;28;20021;-68
2024/02/23 04:23:27;;;;;;;4.82;1.10;;;7.70;99.90;;;;;;2083581;28;20021;-69
2024/02/23 04:24:28;;;;;;;4.60;1.00;;;7.70;99.90;;;;;;2082788;28;20040;-69
2024/02/23 04:25:28;;;;;;;2.15;0.80;;;7.70;99.90;;;;;;2085314;28;20025;-69
2024/02/23 04:26:29;;;;;;;4.18;1.10;;;7.70;99.90;;;;;;2083680;28;20031;-70
2024/02/23 04:27:29;;;;;;;3.38;1.23;;;7.70;99.90;;;;;;2082926;28;20487;-68
2024/02/23 04:28:31;;;;;;;2.55;0.60;;;7.70;99.90;;;;;;2085879;28;20160;-69
2024/02/23 04:29:32;;;;;;;4.75;0.98;;;7.70;99.90;;;;;;2083642;28;20132;-70
2024/02/23 04:30:32;;;;;;;4.63;0.70;;;7.70;99.90;;;;;;2084264;28;20029;-70
2024/02/23 04:31:35;;;;;;;4.03;1.00;;;7.70;99.90;;;;;;2084805;28;20032;-69
2024/02/23 04:32:36;;;;;;;2.95;1.02;;;7.70;99.90;;;;;;2083078;28;20385;-70
2024/02/23 04:33:37;;;;;;;5.03;1.00;;;7.80;99.90;;;;;;2087145;28;20028;-69
2024/02/23 04:34:40;;;;;;;3.22;1.23;;;7.70;99.90;;;;;;2083085;28;20547;-69
2024/02/23 04:35:40;;;;;;;3.30;0.80;;;7.80;99.90;;;;;;2084154;28;20038;-68
2024/02/23 04:36:41;;;;;;;2.20;0.85;;;7.70;99.90;;;;;;2084145;28;20030;-69
2024/02/23 04:37:45;;;;;;;3.78;0.85;;;7.80;99.90;;;;;;2082177;28;20029;-71
2024/02/23 04:38:45;;;;;;;2.42;1.08;;;7.70;99.90;;;;;;2084349;28;20041;-70
2024/02/23 04:39:46;;;;;;;4.57;0.80;;;7.80;99.90;;;;;;2086743;28;20025;-69
2024/02/23 04:40:47;;;;;;;3.65;0.75;;;7.80;99.90;;;;;;2081392;28;20033;-70
2024/02/23 04:41:47;;;;;;;3.80;0.80;;;7.80;99.90;;;;;;2084891;28;20029;-73
2024/02/23 04:42:48;;;;;;;3.08;0.82;;;7.70;99.90;;;;;;2082281;28;20034;-69
2024/02/23 04:43:49;;;;;;;5.63;1.25;;;7.80;99.90;;;;;;2084604;28;20048;-69
2024/02/23 04:44:49;;;;;;;3.38;0.73;;;7.80;99.90;;;;;;2082052;28;20064;-70
2024/02/23 04:45:51;;;;;;;2.83;0.95;;;7.80;99.90;;;;;;2082949;28;20104;-68
2024/02/23 04:46:51;;;;;;;5.15;1.20;;;7.80;99.90;;;;;;2083381;28;20879;-69
2024/02/23 04:47:52;;;;;;;4.38;1.05;;;7.80;99.90;;;;;;2083032;28;20096;-69
2024/02/23 04:48:52;;;;;;;3.13;0.82;;;7.80;99.90;;;;;;2084126;28;20025;-69
2024/02/23 04:49:53;;;;;;;6.20;1.40;;;7.80;99.90;;;;;;2085548;28;20075;-69
2024/02/23 04:50:54;;;;;;;6.50;1.10;;;7.80;99.90;;;;;;2083964;28;20049;-69
2024/02/23 04:51:54;;;;;;;2.67;0.85;;;7.80;99.90;;;;;;2084333;28;20025;-70
2024/02/23 04:52:55;;;;;;;2.33;0.68;;;7.80;99.90;;;;;;2083537;28;20112;-69
2024/02/23 04:53:55;;;;;;;4.70;1.33;;;7.80;99.90;;;;;;2083383;28;20029;-70
2024/02/23 04:54:56;;;;;;;4.03;1.10;;;7.80;99.90;;;;;;2083753;28;20800;-69
2024/02/23 04:55:57;;;;;;;5.30;1.27;;;7.80;99.90;;;;;;2085335;28;20033;-69
2024/02/23 04:56:57;;;;;;;5.95;1.88;;;7.80;99.90;;;;;;2084947;28;20541;-69
2024/02/23 04:57:58;;;;;;;3.08;1.02;;;7.80;99.90;;;;;;2084875;28;20473;-69
2024/02/23 04:58:58;;;;;;;2.67;0.80;;;7.80;99.90;;;;;;2082734;28;20040;-69
2024/02/23 04:59:59;;;;;;;6.15;1.17;;;7.80;99.90;;;;;;2086592;28;20168;-69
2024/02/23 05:00:59;;;;;;;5.85;1.05;;;7.80;99.90;;;;;;2086802;28;20136;-69
2024/02/23 05:02:00;;;;;;;5.78;1.00;;;7.80;99.90;;;;;;2083230;28;20040;-69
2024/02/23 05:03:03;;;;;;;6.15;1.38;;;7.80;99.90;;;;;;2081125;28;20036;-69
2024/02/23 05:04:03;;;;;;;4.32;0.93;;;7.80;99.90;;;;;;2086081;28;20429;-69
2024/02/23 05:05:05;;;;;;;4.93;1.30;;;7.80;99.90;;;;;;2084149;28;20060;-69
2024/02/23 05:06:05;;;;;;;6.80;0.95;;;7.80;99.90;;;;;;2085951;28;20067;-69
2024/02/23 05:07:06;;;;;;;3.45;0.90;;;7.80;99.90;;;;;;2082272;28;20025;-69
2024/02/23 05:08:06;;;;;;;5.65;1.52;;;7.80;99.90;;;;;;2082974;28;20598;-69
2024/02/23 05:09:09;;;;;;;3.47;1.05;;;7.80;99.90;;;;;;2083190;28;20424;-70
2024/02/23 05:10:09;;;;;;;2.35;0.70;;;7.80;99.90;;;;;;2082964;28;20025;-70
2024/02/23 05:11:10;;;;;;;4.93;0.95;;;7.80;99.90;;;;;;2082635;28;20063;-69
2024/02/23 05:12:10;;;;;;;3.83;1.67;;;7.80;99.90;;;;;;2084870;28;20037;-70
2024/02/23 05:13:11;;;;;;;2.67;0.90;;;7.80;99.90;;;;;;2087354;28;20504;-69
2024/02/23 05:14:12;;;;;;;3.25;1.05;;;7.90;99.90;;;;;;2087763;28;20393;-69
2024/02/23 05:15:12;;;;;;;6.72;1.40;;;7.90;99.90;;;;;;2083200;28;20022;-70
2024/02/23 05:16:14;;;;;;;5.20;1.27;;;7.90;99.90;;;;;;2083220;28;20095;-69
2024/02/23 05:17:15;;;;;;;6.53;1.25;;;7.90;99.90;;;;;;2081496;28;20040;-70
2024/02/23 05:18:15;;;;;;;5.32;1.05;;;7.90;99.90;;;;;;2084580;28;20048;-69
2024/02/23 05:19:16;;;;;;;3.78;1.05;;;7.90;99.90;;;;;;2082894;28;20025;-69
2024/02/23 05:20:17;;;;;;;3.83;1.30;;;7.90;99.90;;;;;;2085032;28;20087;-70
2024/02/23 05:21:18;;;;;;;9.65;1.55;;;7.90;99.90;;;;;;2083596;28;20071;-70